Time;durP1;ratioP1;P1;durP2;ratioP2;P2;SDS_P1;SDS_P2;PMS_P1;PMS_P2;Temp;Humidity;BMP_temperature;BMP_pressure;BME280_temperature;BME280_humidity;BME280_pressure;Samples;Min_cycle;Max_cycle;Signal;HPM_P1;HPM_P2
2022/12/15 00:38:50;;;;;;;16.23;6.38;;;-4.20;99.90;;;-4.88;100.00;100081.56;5103085;29;20128;-69
2022/12/15 00:41:22;;;;;;;11.63;5.32;;;-4.20;99.90;;;-4.87;100.00;100084.22;5085234;29;20044;-69
2022/12/15 00:43:54;;;;;;;14.65;6.57;;;-4.20;99.90;;;-4.88;100.00;100087.53;5103163;29;20050;-70
2022/12/15 01:20:33;;;;;;;11.02;4.75;;;-4.40;99.90;;;-5.16;100.00;100121.53;5103189;29;20043;-69
2022/12/15 01:23:06;;;;;;;15.25;5.40;;;-4.50;99.90;;;-5.19;100.00;100122.16;5105642;29;20505;-70
2022/12/15 01:25:40;;;;;;;13.88;5.45;;;-4.50;99.90;;;-5.24;100.00;100119.22;5096659;29;20078;-69
2022/12/15 01:28:12;;;;;;;14.88;5.93;;;-4.50;99.90;;;-5.26;100.00;100125.81;5089283;29;20095;-69
2022/12/15 01:30:44;;;;;;;12.93;5.53;;;-4.50;99.90;;;-5.25;100.00;100122.53;5100549;29;20070;-69
2022/12/15 01:33:18;;;;;;;10.52;4.70;;;-4.60;99.90;;;-5.22;100.00;100121.88;5099172;29;20051;-69
2022/12/15 01:36:01;;;;;;;15.07;5.95;;;-4.50;99.90;;;-5.19;100.00;100127.25;5103222;29;20107;-69
2022/12/15 01:38:33;;;;;;;17.90;6.60;;;-4.50;99.90;;;-5.15;100.00;100133.47;5093600;29;20507;-68
2022/12/15 01:41:09;;;;;;;14.52;6.70;;;-4.50;99.90;;;-5.15;100.00;100141.09;5083629;29;20072;-68
2022/12/15 01:43:42;;;;;;;15.52;6.45;;;-4.40;99.90;;;-5.19;100.00;100140.84;5095306;29;20040;-69
2022/12/15 01:46:17;;;;;;;19.38;6.90;;;-4.50;99.90;;;-5.21;100.00;100144.91;5102434;29;20519;-69
2022/12/15 01:48:56;;;;;;;16.10;7.20;;;-4.50;99.90;;;-5.24;100.00;100147.16;5103339;29;20385;-69
2022/12/15 01:51:34;;;;;;;14.93;6.30;;;-4.50;99.90;;;-5.28;100.00;100141.69;5103559;29;20119;-69
2022/12/15 01:54:12;;;;;;;14.93;5.65;;;-4.60;99.90;;;-5.34;100.00;100152.22;5102609;29;20449;-70
2022/12/15 01:56:51;;;;;;;13.25;6.63;;;-4.60;99.90;;;-5.40;100.00;100155.88;5101281;29;20135;-69
2022/12/15 01:59:29;;;;;;;14.95;6.55;;;-4.70;99.90;;;-5.44;100.00;100159.78;5103573;29;20043;-70
2022/12/15 02:02:02;;;;;;;13.45;5.72;;;-4.70;99.90;;;-5.47;100.00;100157.91;5102206;29;20047;-69
2022/12/15 02:04:36;;;;;;;11.40;5.68;;;-4.70;99.90;;;-5.49;100.00;100155.94;5102748;29;20055;-69
2022/12/15 02:07:13;;;;;;;13.15;5.68;;;-4.80;99.90;;;-5.51;100.00;100162.56;5103508;29;20120;-70
2022/12/15 02:09:48;;;;;;;14.15;5.97;;;-4.80;99.90;;;-5.53;100.00;100166.63;5103078;29;20154;-69
2022/12/15 02:12:35;;;;;;;14.45;5.95;;;-4.80;99.90;;;-5.54;100.00;100164.84;5101183;29;20039;-68
2022/12/15 02:15:19;;;;;;;13.93;6.85;;;-4.80;99.90;;;-5.51;100.00;100165.09;5092297;29;20135;-69
2022/12/15 02:18:01;;;;;;;15.23;6.70;;;-4.80;99.90;;;-5.49;100.00;100167.00;5117311;29;20055;-70
2022/12/15 02:20:53;;;;;;;15.13;7.15;;;-4.80;99.90;;;-5.50;100.00;100172.84;5103113;29;20485;-69
2022/12/15 02:24:26;;;;;;;17.85;6.32;;;-4.80;99.90;;;-5.55;100.00;100184.25;5103217;29;20052;-69
2022/12/15 02:27:25;;;;;;;14.63;6.10;;;-4.80;99.90;;;-5.62;100.00;100173.41;5102748;29;20063;-69
2022/12/15 02:30:30;;;;;;;14.63;6.05;;;-4.90;99.90;;;-5.68;100.00;100180.50;5103125;29;20065;-69
2022/12/15 02:33:16;;;;;;;15.10;6.35;;;-4.90;99.90;;;-5.70;100.00;100179.47;5105580;28;20091;-69
2022/12/15 02:35:56;;;;;;;16.38;5.05;;;-5.00;99.90;;;-5.70;100.00;100176.94;5104099;29;20405;-69
2022/12/15 02:38:31;;;;;;;16.27;6.57;;;-5.00;99.90;;;-5.76;100.00;100183.25;5106399;29;20048;-68
2022/12/15 02:41:26;;;;;;;13.10;6.13;;;-5.00;99.90;;;-5.77;100.00;100172.97;5137363;28;20111;-69
2022/12/15 02:44:01;;;;;;;13.63;5.45;;;-5.00;99.90;;;-5.78;100.00;100181.34;5106206;29;20040;-69
2022/12/15 02:46:50;;;;;;;18.70;7.22;;;-5.10;99.90;;;-5.78;100.00;100187.31;5125570;28;20067;-69
2022/12/15 02:49:29;;;;;;;;;;;-5.00;99.90;;;-5.76;100.00;100182.34;5127041;28;20051;-70
2022/12/15 02:52:13;;;;;;;15.75;6.25;;;-5.00;99.90;;;-5.80;100.00;100185.41;5124912;28;19949;-69
2022/12/15 02:55:13;;;;;;;16.75;6.10;;;-5.10;99.90;;;-5.84;100.00;100193.47;5125944;28;20061;-69
2022/12/15 02:57:54;;;;;;;12.30;5.28;;;-5.10;99.90;;;-5.89;100.00;100195.59;5126262;28;20090;-69
2022/12/15 03:00:29;;;;;;;11.93;5.47;;;-5.10;99.90;;;-5.94;100.00;100201.94;5125957;28;20047;-69
2022/12/15 03:03:01;;;;;;;15.07;6.40;;;-5.20;99.90;;;-5.95;100.00;100190.00;5157166;28;20055;-69
2022/12/15 03:05:34;;;;;;;16.88;7.00;;;-5.20;99.90;;;-5.91;100.00;100194.63;5125538;28;20154;-69
2022/12/15 03:08:08;;;;;;;18.63;6.93;;;-5.20;99.90;;;-5.91;100.00;100192.06;5125931;28;20043;-69
2022/12/15 03:10:40;;;;;;;16.10;6.65;;;-5.20;99.90;;;-5.90;100.00;100188.75;5125573;28;20043;-69
2022/12/15 03:13:13;;;;;;;21.23;7.45;;;-5.20;99.90;;;-5.89;100.00;100197.25;5126084;28;20071;-68
2022/12/15 03:15:46;;;;;;;13.85;6.13;;;-5.20;99.90;;;-5.90;100.00;100191.28;5125212;28;20043;-70
2022/12/15 03:18:18;;;;;;;13.70;6.30;;;-5.20;99.90;;;-5.86;100.00;100202.63;5120168;28;20498;-69
2022/12/15 03:20:51;;;;;;;17.40;5.93;;;-5.10;99.90;;;-5.87;100.00;100204.25;5105699;29;20489;-69
2022/12/15 03:23:23;;;;;;;14.90;6.70;;;-5.10;99.90;;;-5.92;100.00;100213.16;5106308;29;20047;-69
2022/12/15 03:25:55;;;;;;;19.17;7.03;;;-5.20;99.90;;;-5.97;100.00;100199.13;5105862;29;20048;-70
2022/12/15 03:28:27;;;;;;;13.95;6.55;;;-5.20;99.90;;;-6.01;100.00;100202.16;5105823;29;20131;-69
2022/12/15 03:31:01;;;;;;;16.25;6.50;;;-5.30;99.90;;;-6.03;100.00;100208.75;5105692;29;20054;-70
2022/12/15 03:33:34;;;;;;;14.05;6.65;;;-5.30;99.90;;;-6.05;100.00;100215.31;5105674;29;20054;-69
2022/12/15 03:36:07;;;;;;;16.80;6.25;;;-5.30;99.90;;;-6.09;100.00;100209.06;5105451;29;20052;-69
2022/12/15 03:38:39;;;;;;;15.57;6.65;;;-5.30;99.90;;;-6.13;100.00;100214.66;5104221;29;20058;-69
2022/12/15 03:41:12;;;;;;;16.15;6.40;;;-5.40;99.90;;;-6.16;100.00;100205.84;5105639;29;20127;-69
2022/12/15 03:43:45;;;;;;;12.27;5.22;;;-5.40;99.90;;;-6.19;100.00;100209.00;5135742;28;20393;-68
2022/12/15 03:46:18;;;;;;;16.48;7.03;;;-5.40;99.90;;;-6.19;100.00;100214.09;5104735;29;20099;-69
2022/12/15 03:48:51;;;;;;;10.82;5.35;;;-5.50;99.90;;;-6.21;100.00;100207.06;5103986;29;20058;-68
2022/12/15 03:51:23;;;;;;;15.32;6.20;;;-5.50;99.90;;;-6.22;100.00;100225.59;5104905;29;20080;-68
2022/12/15 03:53:57;;;;;;;13.30;5.35;;;-5.50;99.90;;;-6.23;100.00;100218.72;5104888;29;20551;-69
2022/12/15 03:56:29;;;;;;;16.27;6.32;;;-5.50;99.90;;;-6.24;100.00;100216.94;5105515;29;20147;-68
2022/12/15 03:59:02;;;;;;;15.57;6.28;;;-5.50;99.90;;;-6.23;100.00;100226.34;5105222;29;20145;-70
2022/12/15 04:01:36;;;;;;;12.77;5.25;;;-5.50;99.90;;;-6.24;100.00;100216.94;5105008;29;20509;-70
2022/12/15 04:04:09;;;;;;;15.52;5.97;;;-5.50;99.90;;;-6.28;100.00;100221.72;5104885;29;20040;-69
2022/12/15 04:06:41;;;;;;;12.05;4.55;;;-5.50;99.90;;;-6.32;100.00;100223.88;5104976;29;20408;-69
2022/12/15 04:09:13;;;;;;;13.23;6.18;;;-5.60;99.90;;;-6.33;100.00;100224.59;5104964;29;20078;-69
2022/12/15 04:11:46;;;;;;;20.27;6.82;;;-5.60;99.90;;;-6.33;100.00;100229.66;5104878;29;20043;-69
2022/12/15 04:14:18;;;;;;;15.63;6.45;;;-5.60;99.90;;;-6.30;100.00;100227.41;5104519;29;20122;-69
2022/12/15 04:16:52;;;;;;;17.75;6.80;;;-5.60;99.90;;;-6.31;100.00;100228.19;5104847;29;20086;-69
2022/12/15 04:22:15;;;;;;;17.83;6.28;;;-5.50;99.90;;;-6.34;100.00;100232.94;5103591;29;20048;-70
2022/12/15 05:33:17;;;;;;;10.82;5.53;;;-5.90;99.90;;;-6.66;100.00;100284.09;5132890;28;20055;-71
2022/12/15 05:35:50;;;;;;;16.83;6.25;;;-5.90;99.90;;;-6.65;100.00;100280.84;5132294;28;20122;-75
2022/12/15 05:38:23;;;;;;;14.88;5.47;;;-5.90;99.90;;;-6.61;100.00;100275.28;5123663;28;20059;-72
2022/12/15 05:41:07;;;;;;;13.85;6.70;;;-5.80;99.90;;;-6.56;100.00;100288.41;5122347;29;20055;-72
2022/12/15 05:43:39;;;;;;;14.13;5.90;;;-5.80;99.90;;;-6.53;100.00;100288.69;5123021;28;20039;-72
2022/12/15 05:46:12;;;;;;;17.48;5.93;;;-5.80;99.90;;;-6.50;100.00;100294.06;5122379;28;20059;-73
2022/12/15 05:48:44;;;;;;;14.02;5.68;;;-5.70;99.90;;;-6.43;100.00;100291.34;5123610;28;20050;-73
2022/12/15 05:51:16;;;;;;;12.40;5.10;;;-5.70;99.90;;;-6.38;100.00;100290.13;5123468;28;20058;-74
2022/12/15 05:53:48;;;;;;;14.93;5.88;;;-5.70;99.90;;;-6.30;100.00;100290.84;5122597;29;20439;-72
2022/12/15 05:56:22;;;;;;;16.15;6.75;;;-5.50;99.90;;;-6.23;100.00;100293.19;5123469;28;20505;-71
2022/12/15 05:58:55;;;;;;;10.63;5.43;;;-5.50;99.90;;;-6.12;100.00;100295.06;5123415;28;20514;-73
2022/12/15 06:01:29;;;;;;;18.63;6.93;;;-5.40;99.90;;;-6.01;100.00;100285.88;5123743;28;20114;-72
2022/12/15 06:04:02;;;;;;;16.30;6.45;;;-5.30;99.90;;;-5.94;100.00;100285.69;5122962;28;20057;-74
2022/12/15 06:06:34;;;;;;;17.10;6.50;;;-5.20;99.90;;;-5.85;100.00;100278.91;5122190;28;20051;-72
2022/12/15 06:09:06;;;;;;;16.55;6.55;;;-5.10;99.90;;;-5.77;100.00;100280.47;5123056;28;20134;-72
2022/12/15 06:11:40;;;;;;;17.70;6.85;;;-5.10;99.90;;;-5.67;100.00;100291.44;5126600;28;20046;-71
2022/12/15 06:14:12;;;;;;;17.27;6.47;;;-5.00;99.90;;;-5.61;100.00;100289.47;5126813;28;20419;-72
2022/12/15 06:16:44;;;;;;;13.73;6.53;;;-4.90;99.90;;;-5.56;100.00;100301.81;5125952;28;20055;-73
2022/12/15 06:19:16;;;;;;;17.52;7.50;;;-4.80;99.90;;;-5.51;100.00;100304.78;5127139;28;20054;-72
2022/12/15 06:21:48;;;;;;;15.93;7.35;;;-4.80;99.90;;;-5.45;100.00;100300.25;5126762;28;20045;-72
2022/12/15 06:24:20;;;;;;;20.20;7.30;;;-4.70;99.90;;;-5.40;100.00;100306.66;5126386;28;20047;-72
2022/12/15 06:26:54;;;;;;;18.00;7.50;;;-4.70;99.90;;;-5.34;100.00;100312.28;5125563;28;20043;-72
2022/12/15 06:29:27;;;;;;;13.10;6.95;;;-4.60;99.90;;;-5.28;100.00;100309.38;5125617;29;20055;-72
2022/12/15 06:32:00;;;;;;;17.85;6.65;;;-4.60;99.90;;;-5.22;100.00;100312.44;5126811;28;20079;-72
2022/12/15 06:34:32;;;;;;;18.15;7.78;;;-4.50;99.90;;;-5.14;100.00;100319.13;5126667;28;20130;-72
2022/12/15 06:37:04;;;;;;;14.40;7.03;;;-4.40;99.90;;;-5.06;100.00;100307.09;5126757;28;20051;-72
2022/12/15 06:39:37;;;;;;;18.85;7.22;;;-4.40;99.90;;;-5.00;100.00;100315.25;5125018;29;20102;-72
2022/12/15 06:42:10;;;;;;;17.95;6.88;;;-4.30;99.90;;;-4.95;100.00;100322.53;5126787;28;20047;-72
2022/12/15 06:44:43;;;;;;;17.25;6.80;;;-4.30;99.90;;;-4.88;100.00;100323.97;5124821;28;20054;-73
2022/12/15 06:47:15;;;;;;;21.38;7.32;;;-4.20;99.90;;;-4.84;100.00;100325.13;5125316;29;20090;-73
2022/12/15 06:49:49;;;;;;;21.65;7.93;;;-4.20;99.90;;;-4.81;100.00;100328.84;5126159;28;20058;-72
2022/12/15 06:52:21;;;;;;;20.23;7.22;;;-4.10;99.90;;;-4.77;100.00;100317.25;5126301;28;20047;-73
2022/12/15 06:54:54;;;;;;;18.80;7.50;;;-4.10;99.90;;;-4.73;100.00;100320.22;5125901;28;20050;-72
2022/12/15 06:57:27;;;;;;;18.63;7.80;;;-4.10;99.90;;;-4.69;100.00;100322.28;5126557;28;20453;-73
2022/12/15 06:59:59;;;;;;;17.73;6.90;;;-4.00;99.90;;;-4.66;100.00;100324.19;5124761;29;20519;-72
2022/12/15 07:02:32;;;;;;;22.88;8.63;;;-4.00;99.90;;;-4.64;100.00;100315.91;5126494;28;20067;-72
2022/12/15 07:05:05;;;;;;;21.27;9.05;;;-3.90;99.90;;;-4.60;100.00;100316.19;5124169;28;20083;-59
2022/12/15 07:07:37;;;;;;;18.08;8.43;;;-3.90;99.90;;;-4.58;100.00;100322.31;5125900;28;20110;-58
2022/12/15 07:10:10;;;;;;;14.57;5.93;;;-3.90;99.90;;;-4.52;100.00;100320.28;5125389;28;20401;-59
2022/12/15 07:12:44;;;;;;;17.48;7.78;;;-3.80;99.90;;;-4.45;100.00;100327.69;5125210;28;20035;-59
2022/12/15 07:15:16;;;;;;;15.93;6.80;;;-3.80;99.90;;;-4.39;100.00;100333.31;5124874;28;20054;-59
2022/12/15 07:17:49;;;;;;;17.10;8.10;;;-3.70;99.90;;;-4.35;100.00;100345.53;5125264;28;20043;-58
2022/12/15 07:20:21;;;;;;;19.38;8.18;;;-3.70;99.90;;;-4.30;100.00;100339.19;5125004;28;20063;-58
2022/12/15 07:22:54;;;;;;;18.00;6.60;;;-3.60;99.90;;;-4.25;100.00;100331.94;5125304;28;20043;-58
2022/12/15 07:25:26;;;;;;;18.33;7.78;;;-3.60;99.90;;;-4.24;100.00;100329.53;5124702;28;20051;-58
2022/12/15 07:28:00;;;;;;;16.52;8.07;;;-3.60;99.90;;;-4.22;100.00;100333.09;5125262;28;20496;-58
2022/12/15 07:30:32;;;;;;;20.05;7.65;;;-3.60;99.90;;;-4.20;100.00;100345.94;5125119;28;20054;-59
2022/12/15 07:33:05;;;;;;;15.52;6.25;;;-3.60;99.90;;;-4.18;100.00;100340.22;5124967;28;20043;-58
2022/12/15 07:35:37;;;;;;;19.85;8.27;;;-3.50;99.90;;;-4.14;100.00;100342.28;5124464;28;20520;-59
2022/12/15 07:38:09;;;;;;;22.33;8.27;;;-3.50;99.90;;;-4.10;100.00;100343.44;5124799;28;20047;-59
2022/12/15 07:40:41;;;;;;;18.38;7.90;;;-3.40;99.90;;;-4.06;100.00;100345.47;5124771;28;20078;-59
2022/12/15 07:43:15;;;;;;;22.05;8.70;;;-3.40;99.90;;;-4.04;100.00;100341.41;5124520;28;20050;-58
2022/12/15 07:45:52;;;;;;;22.08;8.88;;;-3.40;99.90;;;-4.03;100.00;100334.66;5124040;28;20515;-57
2022/12/15 07:48:26;;;;;;;23.10;9.90;;;-3.40;99.90;;;-4.02;100.00;100333.91;5124000;28;20050;-57
2022/12/15 07:50:58;;;;;;;22.65;9.40;;;-3.40;99.90;;;-3.97;100.00;100350.47;5124312;28;20133;-57
2022/12/15 07:53:30;;;;;;;22.95;9.27;;;-3.30;99.90;;;-3.95;100.00;100351.47;5124208;28;20094;-57
2022/12/15 07:56:04;;;;;;;28.35;9.73;;;-3.30;99.90;;;-3.93;100.00;100355.03;5123941;28;20043;-58
2022/12/15 07:58:38;;;;;;;21.65;8.55;;;-3.30;99.90;;;-3.87;100.00;100355.56;5124230;28;20046;-57
2022/12/15 08:01:13;;;;;;;20.20;8.00;;;-3.20;99.90;;;-3.82;100.00;100364.47;5124649;28;20054;-57
2022/12/15 08:03:45;;;;;;;24.50;9.32;;;-3.20;99.90;;;-3.82;100.00;100367.03;5124130;28;20054;-58
2022/12/15 08:06:18;;;;;;;21.95;9.27;;;-3.20;99.90;;;-3.78;100.00;100360.53;5124336;28;20071;-57
2022/12/15 08:08:50;;;;;;;23.33;9.75;;;-3.10;99.90;;;-3.74;100.00;100362.56;5118149;28;20047;-58
2022/12/15 08:11:24;;;;;;;19.80;8.77;;;-3.10;99.90;;;-3.67;100.00;100362.31;5105592;28;20043;-58
2022/12/15 08:13:58;;;;;;;28.95;11.13;;;-3.10;99.90;;;-3.63;100.00;100380.56;5127473;28;20462;-57
2022/12/15 08:16:33;;;;;;;24.60;9.13;;;-3.00;99.90;;;-3.60;100.00;100393.53;5121055;28;20408;-56
2022/12/15 08:19:06;;;;;;;31.58;11.10;;;-3.00;99.90;;;-3.59;100.00;100380.06;5114817;28;20046;-57
2022/12/15 08:21:39;;;;;;;27.55;11.23;;;-2.90;99.90;;;-3.54;100.00;100377.88;5113196;28;20233;-56
2022/12/15 08:24:13;;;;;;;25.00;10.35;;;-2.90;99.90;;;-3.51;100.00;100390.00;5104092;29;20051;-56
2022/12/15 08:26:46;;;;;;;27.52;10.20;;;-2.90;99.90;;;-3.47;100.00;100389.47;5104226;29;20056;-56
2022/12/15 08:29:19;;;;;;;26.70;9.18;;;-2.80;99.90;;;-3.44;100.00;100382.97;5102878;29;20072;-56
2022/12/15 08:31:52;;;;;;;24.63;9.10;;;-2.80;99.90;;;-3.44;100.00;100377.88;5103668;29;20412;-57
2022/12/15 08:34:24;;;;;;;26.33;9.70;;;-2.80;99.90;;;-3.43;100.00;100379.66;5102986;29;20056;-56
2022/12/15 08:36:56;;;;;;;28.83;10.35;;;-2.80;99.90;;;-3.39;100.00;100373.16;5103748;29;20059;-56
2022/12/15 08:39:28;;;;;;;30.58;10.63;;;-2.80;99.90;;;-3.39;100.00;100370.59;5103914;29;20429;-57
2022/12/15 08:42:00;;;;;;;31.40;11.57;;;-2.70;99.90;;;-3.35;100.00;100363.34;5109243;29;20481;-56
2022/12/15 08:44:34;;;;;;;23.15;8.82;;;-2.70;99.90;;;-2.81;100.00;100375.34;5123384;28;20436;-57
2022/12/15 08:47:07;;;;;;;28.35;10.55;;;-2.20;99.90;;;-2.79;100.00;100384.94;5121911;29;20400;-56
2022/12/15 08:49:39;;;;;;;26.92;9.40;;;-2.10;99.90;;;-2.81;100.00;100380.47;5124196;29;20050;-58
2022/12/15 08:52:12;;;;;;;19.85;7.28;;;-2.10;99.90;;;-2.48;100.00;100387.38;5123971;29;20473;-55
2022/12/15 08:54:44;;;;;;;27.95;10.57;;;-1.80;99.90;;;-1.20;100.00;100386.19;5123727;28;20048;-57
2022/12/15 08:57:17;;;;;;;30.02;11.57;;;-0.40;99.90;;;-1.28;100.00;100387.28;5124245;28;20661;-57
2022/12/15 08:59:51;;;;;;;30.15;12.70;;;-0.50;99.90;;;-1.83;100.00;100398.41;5124104;28;20035;-58
2022/12/15 09:02:23;;;;;;;26.65;10.77;;;-0.90;99.90;;;-1.76;100.00;100403.22;5124102;28;20061;-57
2022/12/15 09:04:55;;;;;;;32.83;12.50;;;-0.90;99.90;;;-2.00;100.00;100403.13;5123565;28;20051;-57
2022/12/15 09:07:28;;;;;;;26.55;10.25;;;-1.00;99.90;;;-2.35;100.00;100414.75;5123888;28;20043;-57
2022/12/15 09:10:00;;;;;;;28.73;10.98;;;-1.40;99.90;;;-2.62;100.00;100413.44;5123688;29;20047;-56
2022/12/15 09:12:32;;;;;;;24.40;10.40;;;-1.70;99.90;;;-2.78;100.00;100429.19;5123592;29;20043;-57
2022/12/15 09:15:07;;;;;;;24.42;10.02;;;-1.90;99.90;;;-2.93;100.00;100422.84;5123502;28;20102;-56
2022/12/15 09:17:39;;;;;;;22.58;9.20;;;-2.10;99.90;;;-2.98;100.00;100427.56;5123611;28;20106;-57
2022/12/15 09:20:13;;;;;;;31.15;10.38;;;-2.20;99.90;;;-3.07;100.00;100430.22;5123588;29;20051;-57
2022/12/15 09:22:45;;;;;;;26.23;10.32;;;-2.30;99.90;;;-3.13;100.00;100441.59;5123488;28;20035;-56
2022/12/15 09:25:17;;;;;;;24.48;9.50;;;-2.30;99.90;;;-3.12;100.00;100439.19;5123403;28;20048;-57
2022/12/15 09:27:49;;;;;;;22.20;8.18;;;-2.40;99.90;;;-3.03;100.00;100450.13;5123946;29;20538;-56
2022/12/15 09:30:23;;;;;;;34.13;11.70;;;-2.30;99.90;;;-3.04;100.00;100452.56;5123664;28;20047;-56
2022/12/15 09:32:55;;;;;;;26.25;10.85;;;-2.30;99.90;;;-3.14;100.00;100458.53;5119604;28;20047;-56
2022/12/15 09:35:27;;;;;;;31.67;11.80;;;-2.40;99.90;;;-3.18;100.00;100459.06;5122400;28;20070;-56
2022/12/15 09:37:59;;;;;;;26.98;10.88;;;-2.40;99.90;;;-3.26;100.00;100457.56;5123665;28;20043;-57
2022/12/15 09:40:32;;;;;;;27.13;11.27;;;-2.40;99.90;;;-3.37;100.00;100466.84;5123577;29;20125;-57
2022/12/15 09:43:05;;;;;;;32.15;11.85;;;-2.60;99.90;;;-3.40;100.00;100460.56;5123624;29;20043;-56
2022/12/15 09:45:44;;;;;;;27.92;10.95;;;-2.60;99.90;;;-3.37;100.00;100471.03;5126842;28;20794;-57
2022/12/15 09:48:20;;;;;;;30.35;11.57;;;-2.60;99.90;;;-3.29;100.00;100464.94;5127804;29;20066;-57
2022/12/15 09:50:54;;;;;;;28.90;11.52;;;-2.50;99.90;;;-3.25;100.00;100461.88;5126631;28;20058;-57
2022/12/15 09:53:27;;;;;;;31.25;12.10;;;-2.50;99.90;;;-3.27;100.00;100458.28;5127479;29;20048;-57
2022/12/15 09:56:08;;;;;;;32.63;12.68;;;-2.50;99.90;;;-3.28;100.00;100466.69;5127398;28;20130;-57
2022/12/15 09:58:51;;;;;;;28.83;11.88;;;-2.50;99.90;;;-3.30;100.00;100458.94;5127634;29;20533;-55
2022/12/15 10:01:33;;;;;;;30.98;11.73;;;-2.50;99.90;;;-3.30;100.00;100471.69;5127562;28;20047;-56
2022/12/15 10:04:11;;;;;;;24.73;9.70;;;-2.50;99.90;;;-3.23;100.00;100470.53;5127008;29;20054;-58
2022/12/15 10:06:51;;;;;;;24.80;9.65;;;-2.50;99.90;;;-3.07;100.00;100460.84;5127397;28;20055;-56
2022/12/15 10:09:26;;;;;;;25.70;10.02;;;-2.40;99.90;;;-2.87;100.00;100464.13;5127416;28;20051;-56
2022/12/15 10:12:03;;;;;;;26.75;10.65;;;-2.30;99.90;;;-2.70;100.00;100466.41;5127228;28;20059;-56
2022/12/15 10:14:41;;;;;;;31.63;10.27;;;-2.10;99.90;;;-2.58;100.00;100467.44;5126913;28;20079;-57
2022/12/15 10:17:22;;;;;;;25.35;10.27;;;-2.00;99.90;;;-2.36;100.00;100470.03;5127194;28;20051;-55
2022/12/15 10:20:04;;;;;;;21.77;8.95;;;-1.80;99.90;;;-2.17;100.00;100464.75;5127404;29;20519;-57
2022/12/15 10:22:37;;;;;;;27.98;9.95;;;-1.70;99.90;;;-2.00;100.00;100471.19;5127072;28;20047;-57
2022/12/15 10:25:16;;;;;;;25.60;10.13;;;-1.60;99.90;;;-2.01;100.00;100474.53;5126722;28;20055;-57
2022/12/15 10:28:10;;;;;;;30.50;9.88;;;-1.50;99.90;;;-2.00;100.00;100474.66;5126913;28;20536;-57
2022/12/15 10:30:52;;;;;;;27.10;10.90;;;-1.40;99.90;;;-2.08;100.00;100470.59;5126690;29;20062;-57
2022/12/15 10:33:27;;;;;;;22.30;8.52;;;-1.50;99.90;;;-2.06;100.00;100466.50;5126686;28;20043;-55
2022/12/15 10:35:59;;;;;;;;;;;-1.50;99.90;;;-2.08;100.00;100455.28;5124658;28;20055;-57
2022/12/15 10:38:37;;;;;;;27.02;9.57;;;-1.50;99.90;;;-2.11;100.00;100455.03;5122772;28;20268;-56
2022/12/15 10:41:11;;;;;;;25.75;9.68;;;-1.50;99.90;;;-2.13;100.00;100451.47;5121189;29;20074;-58
2022/12/15 10:43:46;;;;;;;23.33;9.15;;;-1.50;99.90;;;-2.16;100.00;100448.66;5113740;29;20478;-56
2022/12/15 10:46:21;;;;;;;25.05;10.35;;;-1.50;99.90;;;-2.22;100.00;100443.06;5118685;29;20051;-56
2022/12/15 10:48:59;;;;;;;27.67;11.13;;;-1.60;99.90;;;-2.33;100.00;100447.31;5126464;28;20071;-56
2022/12/15 10:51:33;;;;;;;29.48;11.43;;;-1.70;99.90;;;-2.38;100.00;100450.28;5126189;29;20102;-57
2022/12/15 10:54:12;;;;;;;28.58;10.95;;;-1.70;99.90;;;-2.33;100.00;100449.00;5125921;28;20039;-56
2022/12/15 10:56:51;;;;;;;25.90;11.18;;;-1.70;99.90;;;-2.24;100.00;100455.72;5123676;28;20035;-56
2022/12/15 10:59:26;;;;;;;21.10;9.18;;;-1.60;99.90;;;-2.09;100.00;100461.13;5121285;29;20055;-57
2022/12/15 11:02:26;;;;;;;26.20;9.30;;;-1.50;99.90;;;-1.66;100.00;100456.84;5126188;28;20416;-60
2022/12/15 11:05:02;;;;;;;35.88;13.60;;;-1.20;99.90;;;-1.40;100.00;100441.84;5125845;28;20069;-58
2022/12/15 11:07:38;;;;;;;35.50;13.18;;;-1.00;99.90;;;-1.37;100.00;100441.16;5126206;28;20099;-55
2022/12/15 11:10:19;;;;;;;35.50;13.57;;;-0.90;99.90;;;-1.42;100.00;100450.19;5126143;28;20051;-58
2022/12/15 11:13:09;;;;;;;31.67;11.60;;;-0.90;99.90;;;-1.42;100.00;100447.63;5122186;29;20039;-57
2022/12/15 11:15:47;;;;;;;44.20;17.73;;;-0.90;99.90;;;-1.47;100.00;100447.25;5116160;28;20047;-56
2022/12/15 11:18:29;;;;;;;32.80;13.23;;;-0.90;99.90;;;-1.51;100.00;100444.34;5122190;28;20036;-57
2022/12/15 11:21:11;;;;;;;34.90;13.57;;;-0.90;99.90;;;-1.58;100.00;100448.09;5118915;29;20039;-58
2022/12/15 11:23:56;;;;;;;28.98;11.73;;;-0.90;99.90;;;-1.53;100.00;100451.00;5109145;29;20381;-59
2022/12/15 11:26:49;;;;;;;35.70;11.80;;;-1.00;99.90;;;-1.54;100.00;100449.25;5119568;29;20042;-58
2022/12/15 11:29:33;;;;;;;30.27;12.25;;;-1.00;99.90;;;-1.40;100.00;100444.41;5109665;29;20051;-57
2022/12/15 11:32:05;;;;;;;36.08;13.18;;;-0.90;99.90;;;-1.16;100.00;100444.50;5135658;23;20047;-58
2022/12/15 11:34:43;;;;;;;31.02;11.98;;;-0.70;99.90;;;-0.97;100.00;100442.53;5115992;28;20114;-57
2022/12/15 11:37:45;;;;;;;29.45;12.38;;;-0.60;99.90;;;-0.78;100.00;100428.50;5124955;28;20535;-56
2022/12/15 11:40:38;;;;;;;29.52;12.15;;;-0.40;99.90;;;-0.70;100.00;100433.44;5124985;29;20058;-55
2022/12/15 11:43:45;;;;;;;30.13;10.75;;;-0.30;99.90;;;-0.58;100.00;100420.66;5124152;28;20051;-56
2022/12/15 11:46:23;;;;;;;27.15;11.02;;;-0.20;99.90;;;-0.40;100.00;100423.63;5114865;28;20059;-55
2022/12/15 11:49:24;;;;;;;34.45;13.25;;;0.00;99.90;;;-0.37;100.00;100419.63;5129662;28;20134;-54
2022/12/15 11:52:04;;;;;;;31.05;12.93;;;0.10;99.90;;;-0.41;100.00;100422.75;5106505;28;20145;-57
2022/12/15 11:54:45;;;;;;;30.77;13.43;;;0.10;99.90;;;-0.31;100.00;100425.19;5123459;28;20039;-56
2022/12/15 11:57:44;;;;;;;28.42;11.68;;;0.10;99.90;;;-0.20;100.00;100427.63;5121240;29;20109;-55
2022/12/15 12:00:19;;;;;;;31.60;11.25;;;0.20;99.90;;;-0.24;100.00;100428.19;5123887;29;20078;-55
2022/12/15 12:03:10;;;;;;;31.13;11.20;;;0.20;99.90;;;-0.37;100.00;100435.00;5121058;29;20040;-55
2022/12/15 12:06:10;;;;;;;27.70;11.75;;;0.20;99.90;;;-0.42;100.00;100427.75;5114701;28;20053;-56
2022/12/15 12:09:14;;;;;;;26.42;11.77;;;0.10;99.90;;;-0.36;100.00;100420.53;5115959;29;20074;-55
2022/12/15 12:11:54;;;;;;;24.15;9.85;;;0.10;99.90;;;-0.24;100.00;100411.16;5101105;29;20059;-56
2022/12/15 12:14:42;;;;;;;25.30;10.98;;;0.20;99.90;;;-0.19;100.00;100406.38;5114530;29;20039;-55
2022/12/15 12:17:23;;;;;;;28.33;11.00;;;0.20;99.90;;;-0.13;100.00;100399.09;5123140;29;20504;-55
2022/12/15 12:20:00;;;;;;;30.15;12.23;;;0.30;99.90;;;-0.22;100.00;100408.69;5124756;28;20075;-55
2022/12/15 12:22:36;;;;;;;30.17;11.95;;;0.30;99.90;;;-0.33;100.00;100398.59;5124141;28;20059;-55
2022/12/15 12:25:14;;;;;;;28.95;11.90;;;0.20;99.90;;;-0.40;100.00;100400.59;5121784;28;20099;-55
2022/12/15 12:27:54;;;;;;;26.80;10.32;;;0.10;99.90;;;-0.36;100.00;100392.34;5116704;29;20051;-55
2022/12/15 12:30:37;;;;;;;30.38;11.93;;;0.20;99.90;;;-0.36;100.00;100392.34;5124237;28;20053;-54
2022/12/15 12:33:18;;;;;;;29.02;11.55;;;0.20;99.90;;;-0.41;100.00;100388.56;5123969;29;20050;-55
2022/12/15 12:35:55;;;;;;;27.35;10.65;;;0.10;99.90;;;-0.44;100.00;100380.69;5123337;28;20047;-56
2022/12/15 12:38:34;;;;;;;29.88;12.00;;;0.10;99.90;;;-0.55;100.00;100377.34;5124313;28;20043;-56
2022/12/15 12:41:11;;;;;;;27.85;11.35;;;0.00;99.90;;;-0.72;100.00;100373.53;5123964;29;20055;-57
2022/12/15 12:43:50;;;;;;;27.35;10.25;;;-0.10;99.90;;;-0.75;100.00;100367.34;5122600;29;20046;-54
2022/12/15 12:46:27;;;;;;;28.88;9.90;;;-0.10;99.90;;;-0.75;100.00;100367.34;5124146;28;20059;-56
2022/12/15 12:49:05;;;;;;;26.58;10.38;;;-0.20;99.90;;;-0.74;100.00;100364.88;5124017;29;20134;-56
2022/12/15 12:51:40;;;;;;;27.45;10.43;;;-0.20;99.90;;;-0.71;100.00;100364.22;5122000;29;20047;-55
2022/12/15 12:54:47;;;;;;;25.95;10.15;;;-0.10;99.90;;;-0.82;100.00;100361.75;5118396;29;20051;-54
2022/12/15 12:57:36;;;;;;;28.27;10.75;;;-0.20;99.90;;;-0.88;100.00;100361.31;5123700;29;20039;-55
2022/12/15 13:00:20;;;;;;;31.58;11.40;;;-0.20;99.90;;;-0.93;100.00;100347.28;5122556;29;20047;-55